sensor_id;sensor_type;location;lat;lon;timestamp;temperature;humidity
12771;DHT22;6449;47.666;9.160;2022-09-09T00:00:40;15.00;99.90
12771;DHT22;6449;47.666;9.160;2022-09-09T00:05:42;14.90;99.90
12771;DHT22;6449;47.666;9.160;2022-09-09T00:10:40;14.90;99.90
12771;DHT22;6449;47.666;9.160;2022-09-09T00:15:38;14.80;99.90
12771;DHT22;6449;47.666;9.160;2022-09-09T00:20:44;14.80;99.90
12771;DHT22;6449;47.666;9.160;2022-09-09T00:25:54;14.80;99.90
12771;DHT22;6449;47.666;9.160;2022-09-09T00:30:56;14.80;99.90
12771;DHT22;6449;47.666;9.160;2022-09-09T00:35:58;14.70;99.90
12771;DHT22;6449;47.666;9.160;2022-09-09T00:41:00;14.70;99.90
12771;DHT22;6449;47.666;9.160;2022-09-09T00:46:21;14.50;99.90
12771;DHT22;6449;47.666;9.160;2022-09-09T00:51:43;14.50;99.90
12771;DHT22;6449;47.666;9.160;2022-09-09T00:56:55;14.50;99.90
12771;DHT22;6449;47.666;9.160;2022-09-09T01:01:59;14.40;99.90
12771;DHT22;6449;47.666;9.160;2022-09-09T01:06:59;14.50;99.90
12771;DHT22;6449;47.666;9.160;2022-09-09T01:12:07;14.40;99.90
12771;DHT22;6449;47.666;9.160;2022-09-09T01:17:11;14.40;99.90
12771;DHT22;6449;47.666;9.160;2022-09-09T01:22:12;14.40;99.90
12771;DHT22;6449;47.666;9.160;2022-09-09T01:27:16;14.50;99.90
12771;DHT22;6449;47.666;9.160;2022-09-09T01:32:40;14.60;99.90
12771;DHT22;6449;47.666;9.160;2022-09-09T01:37:35;14.50;99.90
12771;DHT22;6449;47.666;9.160;2022-09-09T01:42:31;14.50;99.90
12771;DHT22;6449;47.666;9.160;2022-09-09T01:47:24;14.30;99.90
12771;DHT22;6449;47.666;9.160;2022-09-09T01:52:18;14.30;99.90
12771;DHT22;6449;47.666;9.160;2022-09-09T01:57:15;14.40;99.90
12771;DHT22;6449;47.666;9.160;2022-09-09T02:02:18;14.40;99.90
12771;DHT22;6449;47.666;9.160;2022-09-09T02:07:26;14.40;99.90
12771;DHT22;6449;47.666;9.160;2022-09-09T02:12:28;14.30;99.90
12771;DHT22;6449;47.666;9.160;2022-09-09T02:17:26;14.30;99.90
12771;DHT22;6449;47.666;9.160;2022-09-09T02:22:24;14.50;99.90
12771;DHT22;6449;47.666;9.160;2022-09-09T02:27:22;14.60;99.90
12771;DHT22;6449;47.666;9.160;2022-09-09T02:32:19;14.70;99.90
12771;DHT22;6449;47.666;9.160;2022-09-09T02:37:18;14.70;99.90
12771;DHT22;6449;47.666;9.160;2022-09-09T02:42:15;14.70;99.90
12771;DHT22;6449;47.666;9.160;2022-09-09T02:47:29;14.70;99.90
12771;DHT22;6449;47.666;9.160;2022-09-09T02:52:38;14.70;99.90
12771;DHT22;6449;47.666;9.160;2022-09-09T02:57:40;14.80;99.90
12771;DHT22;6449;47.666;9.160;2022-09-09T03:02:37;14.80;99.90
12771;DHT22;6449;47.666;9.160;2022-09-09T03:07:31;14.80;99.90
12771;DHT22;6449;47.666;9.160;2022-09-09T03:12:25;14.80;99.90
12771;DHT22;6449;47.666;9.160;2022-09-09T03:17:18;15.00;99.90
12771;DHT22;6449;47.666;9.160;2022-09-09T03:22:13;15.10;99.90
12771;DHT22;6449;47.666;9.160;2022-09-09T03:27:08;15.00;99.90
12771;DHT22;6449;47.666;9.160;2022-09-09T03:32:02;15.00;99.90
12771;DHT22;6449;47.666;9.160;2022-09-09T03:36:55;14.90;99.90
12771;DHT22;6449;47.666;9.160;2022-09-09T03:41:49;15.10;99.90
12771;DHT22;6449;47.666;9.160;2022-09-09T03:46:43;15.10;99.90
12771;DHT22;6449;47.666;9.160;2022-09-09T03:51:37;15.10;99.90
12771;DHT22;6449;47.666;9.160;2022-09-09T03:56:32;15.10;99.90
12771;DHT22;6449;47.666;9.160;2022-09-09T04:01:25;15.10;99.90
12771;DHT22;6449;47.666;9.160;2022-09-09T04:06:21;15.20;99.90
12771;DHT22;6449;47.666;9.160;2022-09-09T04:11:14;15.20;99.90
12771;DHT22;6449;47.666;9.160;2022-09-09T04:16:10;15.20;99.90
12771;DHT22;6449;47.666;9.160;2022-09-09T04:21:05;15.20;99.90
12771;DHT22;6449;47.666;9.160;2022-09-09T04:26:02;15.30;99.90
12771;DHT22;6449;47.666;9.160;2022-09-09T04:30:56;15.20;99.90
12771;DHT22;6449;47.666;9.160;2022-09-09T04:35:50;15.30;99.90
12771;DHT22;6449;47.666;9.160;2022-09-09T04:40:46;15.20;99.90
12771;DHT22;6449;47.666;9.160;2022-09-09T04:45:41;15.30;99.90
12771;DHT22;6449;47.666;9.160;2022-09-09T04:50:35;15.30;99.90
12771;DHT22;6449;47.666;9.160;2022-09-09T04:55:29;15.30;99.90
12771;DHT22;6449;47.666;9.160;2022-09-09T05:00:23;15.30;99.90
12771;DHT22;6449;47.666;9.160;2022-09-09T05:05:20;15.30;99.90
12771;DHT22;6449;47.666;9.160;2022-09-09T05:10:14;15.20;99.90
12771;DHT22;6449;47.666;9.160;2022-09-09T05:15:09;15.10;99.90
12771;DHT22;6449;47.666;9.160;2022-09-09T05:20:04;15.00;99.90
12771;DHT22;6449;47.666;9.160;2022-09-09T05:25:04;15.00;99.90
12771;DHT22;6449;47.666;9.160;2022-09-09T05:29:57;14.90;99.90
12771;DHT22;6449;47.666;9.160;2022-09-09T05:34:50;14.90;99.90
12771;DHT22;6449;47.666;9.160;2022-09-09T05:39:44;14.90;99.90
12771;DHT22;6449;47.666;9.160;2022-09-09T05:44:39;14.90;99.90
12771;DHT22;6449;47.666;9.160;2022-09-09T05:49:36;15.00;99.90
12771;DHT22;6449;47.666;9.160;2022-09-09T05:54:30;14.90;99.90
12771;DHT22;6449;47.666;9.160;2022-09-09T05:59:24;14.80;99.90
12771;DHT22;6449;47.666;9.160;2022-09-09T06:04:18;14.90;99.90
12771;DHT22;6449;47.666;9.160;2022-09-09T06:09:14;15.00;99.90
12771;DHT22;6449;47.666;9.160;2022-09-09T06:14:08;15.00;99.90
12771;DHT22;6449;47.666;9.160;2022-09-09T06:19:02;15.00;99.90
12771;DHT22;6449;47.666;9.160;2022-09-09T06:23:57;15.10;99.90
12771;DHT22;6449;47.666;9.160;2022-09-09T06:28:53;15.10;99.90
12771;DHT22;6449;47.666;9.160;2022-09-09T06:33:50;15.10;99.90
12771;DHT22;6449;47.666;9.160;2022-09-09T06:38:44;15.10;99.90
12771;DHT22;6449;47.666;9.160;2022-09-09T06:43:40;15.10;99.90
12771;DHT22;6449;47.666;9.160;2022-09-09T06:48:33;15.30;99.90
12771;DHT22;6449;47.666;9.160;2022-09-09T06:53:27;15.30;99.90
12771;DHT22;6449;47.666;9.160;2022-09-09T06:58:21;15.40;99.90
12771;DHT22;6449;47.666;9.160;2022-09-09T07:03:16;15.50;99.90
12771;DHT22;6449;47.666;9.160;2022-09-09T07:08:10;15.60;99.90
12771;DHT22;6449;47.666;9.160;2022-09-09T07:13:03;15.60;99.90
12771;DHT22;6449;47.666;9.160;2022-09-09T07:18:01;15.70;99.90
12771;DHT22;6449;47.666;9.160;2022-09-09T07:22:56;15.80;99.90
12771;DHT22;6449;47.666;9.160;2022-09-09T07:27:50;15.90;99.90
12771;DHT22;6449;47.666;9.160;2022-09-09T07:32:43;15.80;99.90
12771;DHT22;6449;47.666;9.160;2022-09-09T07:37:36;15.80;99.90
12771;DHT22;6449;47.666;9.160;2022-09-09T07:42:41;15.80;99.90
12771;DHT22;6449;47.666;9.160;2022-09-09T07:47:35;15.90;99.90
12771;DHT22;6449;47.666;9.160;2022-09-09T07:52:28;15.90;99.90
12771;DHT22;6449;47.666;9.160;2022-09-09T07:57:21;16.00;99.90
12771;DHT22;6449;47.666;9.160;2022-09-09T08:02:24;16.20;99.90
12771;DHT22;6449;47.666;9.160;2022-09-09T08:07:25;16.50;99.90
12771;DHT22;6449;47.666;9.160;2022-09-09T08:12:19;16.60;99.90
12771;DHT22;6449;47.666;9.160;2022-09-09T08:17:12;16.90;99.90
12771;DHT22;6449;47.666;9.160;2022-09-09T08:22:07;17.10;99.90
12771;DHT22;6449;47.666;9.160;2022-09-09T08:27:00;17.30;99.90
12771;DHT22;6449;47.666;9.160;2022-09-09T08:31:56;17.60;99.90
12771;DHT22;6449;47.666;9.160;2022-09-09T08:36:51;17.60;99.90
12771;DHT22;6449;47.666;9.160;2022-09-09T08:42:18;17.80;99.90
12771;DHT22;6449;47.666;9.160;2022-09-09T08:47:26;18.00;99.90
12771;DHT22;6449;47.666;9.160;2022-09-09T08:52:30;18.30;99.90
12771;DHT22;6449;47.666;9.160;2022-09-09T08:57:28;18.60;99.90
12771;DHT22;6449;47.666;9.160;2022-09-09T09:02:27;18.70;99.90
12771;DHT22;6449;47.666;9.160;2022-09-09T09:07:46;18.80;99.90
12771;DHT22;6449;47.666;9.160;2022-09-09T09:12:53;18.50;99.90
12771;DHT22;6449;47.666;9.160;2022-09-09T09:18:01;18.20;99.90
12771;DHT22;6449;47.666;9.160;2022-09-09T09:23:01;18.20;99.90
12771;DHT22;6449;47.666;9.160;2022-09-09T09:28:01;18.00;99.90
12771;DHT22;6449;47.666;9.160;2022-09-09T09:33:01;17.80;99.90
12771;DHT22;6449;47.666;9.160;2022-09-09T09:38:05;17.70;99.90
12771;DHT22;6449;47.666;9.160;2022-09-09T09:43:31;17.50;99.90
12771;DHT22;6449;47.666;9.160;2022-09-09T09:48:28;17.70;99.90
12771;DHT22;6449;47.666;9.160;2022-09-09T09:53:24;17.80;99.90
12771;DHT22;6449;47.666;9.160;2022-09-09T09:58:19;17.90;99.90
12771;DHT22;6449;47.666;9.160;2022-09-09T10:03:23;18.10;99.90
12771;DHT22;6449;47.666;9.160;2022-09-09T10:08:19;18.00;99.90
12771;DHT22;6449;47.666;9.160;2022-09-09T10:13:18;18.00;99.90
12771;DHT22;6449;47.666;9.160;2022-09-09T10:18:36;18.00;99.90
12771;DHT22;6449;47.666;9.160;2022-09-09T10:23:51;18.00;99.90
12771;DHT22;6449;47.666;9.160;2022-09-09T10:29:15;18.00;99.90
12771;DHT22;6449;47.666;9.160;2022-09-09T10:34:38;18.00;99.90
12771;DHT22;6449;47.666;9.160;2022-09-09T10:39:56;18.00;99.90
12771;DHT22;6449;47.666;9.160;2022-09-09T10:45:04;18.00;99.90
12771;DHT22;6449;47.666;9.160;2022-09-09T10:50:23;18.20;99.90
12771;DHT22;6449;47.666;9.160;2022-09-09T10:55:52;18.40;99.90
12771;DHT22;6449;47.666;9.160;2022-09-09T11:00:52;18.40;99.90
12771;DHT22;6449;47.666;9.160;2022-09-09T11:05:53;18.30;99.90
12771;DHT22;6449;47.666;9.160;2022-09-09T11:10:59;18.30;99.90
12771;DHT22;6449;47.666;9.160;2022-09-09T11:16:00;18.10;99.90
12771;DHT22;6449;47.666;9.160;2022-09-09T11:21:09;18.00;99.90
12771;DHT22;6449;47.666;9.160;2022-09-09T11:26:14;17.90;99.90
12771;DHT22;6449;47.666;9.160;2022-09-09T11:31:27;17.80;99.90
12771;DHT22;6449;47.666;9.160;2022-09-09T11:36:56;18.00;99.90
12771;DHT22;6449;47.666;9.160;2022-09-09T11:42:16;18.50;99.90
12771;DHT22;6449;47.666;9.160;2022-09-09T11:47:20;18.90;99.90
12771;DHT22;6449;47.666;9.160;2022-09-09T11:52:25;19.40;99.90
12771;DHT22;6449;47.666;9.160;2022-09-09T11:57:33;19.70;99.90
12771;DHT22;6449;47.666;9.160;2022-09-09T12:02:29;19.50;99.90
12771;DHT22;6449;47.666;9.160;2022-09-09T12:07:32;19.30;99.90
12771;DHT22;6449;47.666;9.160;2022-09-09T12:12:33;19.50;99.90
12771;DHT22;6449;47.666;9.160;2022-09-09T12:17:42;19.60;99.90
12771;DHT22;6449;47.666;9.160;2022-09-09T12:22:51;19.70;99.90
12771;DHT22;6449;47.666;9.160;2022-09-09T12:28:08;19.70;99.90
12771;DHT22;6449;47.666;9.160;2022-09-09T12:33:11;19.90;99.90
12771;DHT22;6449;47.666;9.160;2022-09-09T12:38:13;19.90;99.90
12771;DHT22;6449;47.666;9.160;2022-09-09T12:43:18;19.90;99.90
12771;DHT22;6449;47.666;9.160;2022-09-09T12:48:13;20.00;99.90
12771;DHT22;6449;47.666;9.160;2022-09-09T12:53:27;19.90;99.90
12771;DHT22;6449;47.666;9.160;2022-09-09T12:58:26;20.00;99.90
12771;DHT22;6449;47.666;9.160;2022-09-09T13:03:25;20.00;99.90
12771;DHT22;6449;47.666;9.160;2022-09-09T13:08:23;19.90;99.90
12771;DHT22;6449;47.666;9.160;2022-09-09T13:13:22;19.90;99.90
12771;DHT22;6449;47.666;9.160;2022-09-09T13:19:13;19.80;99.90
12771;DHT22;6449;47.666;9.160;2022-09-09T13:24:33;19.70;99.90
12771;DHT22;6449;47.666;9.160;2022-09-09T13:30:43;19.70;99.90
12771;DHT22;6449;47.666;9.160;2022-09-09T13:35:59;19.60;99.90
12771;DHT22;6449;47.666;9.160;2022-09-09T13:41:43;19.50;99.90
12771;DHT22;6449;47.666;9.160;2022-09-09T13:53:07;19.30;99.90
12771;DHT22;6449;47.666;9.160;2022-09-09T13:58:30;19.50;99.90
12771;DHT22;6449;47.666;9.160;2022-09-09T14:03:23;19.60;99.90
12771;DHT22;6449;47.666;9.160;2022-09-09T14:09:03;19.80;99.90
12771;DHT22;6449;47.666;9.160;2022-09-09T14:14:15;20.00;99.90
12771;DHT22;6449;47.666;9.160;2022-09-09T14:19:20;20.20;99.90
12771;DHT22;6449;47.666;9.160;2022-09-09T14:24:41;20.40;99.90
12771;DHT22;6449;47.666;9.160;2022-09-09T14:29:53;20.50;99.90
12771;DHT22;6449;47.666;9.160;2022-09-09T14:42:45;20.10;99.90
12771;DHT22;6449;47.666;9.160;2022-09-09T14:54:53;19.50;99.90
12771;DHT22;6449;47.666;9.160;2022-09-09T14:59:52;19.30;99.90
12771;DHT22;6449;47.666;9.160;2022-09-09T15:10:59;19.00;99.90
12771;DHT22;6449;47.666;9.160;2022-09-09T15:16:17;19.10;99.90
12771;DHT22;6449;47.666;9.160;2022-09-09T15:21:22;19.30;99.90
12771;DHT22;6449;47.666;9.160;2022-09-09T15:26:16;19.50;99.90
12771;DHT22;6449;47.666;9.160;2022-09-09T15:31:12;19.60;99.90
12771;DHT22;6449;47.666;9.160;2022-09-09T15:36:16;19.70;99.90
12771;DHT22;6449;47.666;9.160;2022-09-09T15:47:34;19.70;99.90
12771;DHT22;6449;47.666;9.160;2022-09-09T15:52:28;19.80;99.90
12771;DHT22;6449;47.666;9.160;2022-09-09T15:57:21;19.80;99.90
12771;DHT22;6449;47.666;9.160;2022-09-09T16:02:20;19.70;99.90
12771;DHT22;6449;47.666;9.160;2022-09-09T16:07:16;19.50;99.90
12771;DHT22;6449;47.666;9.160;2022-09-09T16:12:10;19.40;99.90
12771;DHT22;6449;47.666;9.160;2022-09-09T16:17:05;19.30;99.90
12771;DHT22;6449;47.666;9.160;2022-09-09T16:22:06;19.20;99.90
12771;DHT22;6449;47.666;9.160;2022-09-09T16:27:01;19.10;99.90
12771;DHT22;6449;47.666;9.160;2022-09-09T16:31:54;19.00;99.90
12771;DHT22;6449;47.666;9.160;2022-09-09T16:36:54;19.10;99.90
12771;DHT22;6449;47.666;9.160;2022-09-09T16:41:48;19.00;99.90
12771;DHT22;6449;47.666;9.160;2022-09-09T16:46:43;18.80;99.90
12771;DHT22;6449;47.666;9.160;2022-09-09T16:51:41;18.70;99.90
12771;DHT22;6449;47.666;9.160;2022-09-09T16:56:37;18.50;99.90
12771;DHT22;6449;47.666;9.160;2022-09-09T17:01:35;18.40;99.90
12771;DHT22;6449;47.666;9.160;2022-09-09T17:06:33;18.30;99.90
12771;DHT22;6449;47.666;9.160;2022-09-09T17:11:29;18.20;99.90
12771;DHT22;6449;47.666;9.160;2022-09-09T17:16:25;18.10;99.90
12771;DHT22;6449;47.666;9.160;2022-09-09T17:21:24;17.90;99.90
12771;DHT22;6449;47.666;9.160;2022-09-09T17:26:22;17.80;99.90
12771;DHT22;6449;47.666;9.160;2022-09-09T17:31:18;17.70;99.90
12771;DHT22;6449;47.666;9.160;2022-09-09T17:36:13;17.50;99.90
12771;DHT22;6449;47.666;9.160;2022-09-09T17:41:10;17.50;99.90
12771;DHT22;6449;47.666;9.160;2022-09-09T17:46:08;17.50;99.90
12771;DHT22;6449;47.666;9.160;2022-09-09T17:51:04;17.50;99.90
12771;DHT22;6449;47.666;9.160;2022-09-09T17:56:03;17.50;99.90
12771;DHT22;6449;47.666;9.160;2022-09-09T18:01:02;17.60;99.90
12771;DHT22;6449;47.666;9.160;2022-09-09T18:06:01;17.60;99.90
12771;DHT22;6449;47.666;9.160;2022-09-09T18:10:56;17.70;99.90
12771;DHT22;6449;47.666;9.160;2022-09-09T18:15:49;17.10;99.90
12771;DHT22;6449;47.666;9.160;2022-09-09T18:20:43;16.50;99.90
12771;DHT22;6449;47.666;9.160;2022-09-09T18:25:38;16.20;99.90
12771;DHT22;6449;47.666;9.160;2022-09-09T18:30:32;16.00;99.90
12771;DHT22;6449;47.666;9.160;2022-09-09T18:35:29;16.10;99.90
12771;DHT22;6449;47.666;9.160;2022-09-09T18:40:23;16.10;99.90
12771;DHT22;6449;47.666;9.160;2022-09-09T18:45:22;16.00;99.90
12771;DHT22;6449;47.666;9.160;2022-09-09T18:50:15;16.00;99.90
12771;DHT22;6449;47.666;9.160;2022-09-09T18:55:09;16.10;99.90
12771;DHT22;6449;47.666;9.160;2022-09-09T19:00:04;16.10;99.90
12771;DHT22;6449;47.666;9.160;2022-09-09T19:05:01;16.00;99.90
12771;DHT22;6449;47.666;9.160;2022-09-09T19:09:55;15.90;99.90
12771;DHT22;6449;47.666;9.160;2022-09-09T19:14:48;15.90;99.90
12771;DHT22;6449;47.666;9.160;2022-09-09T19:19:43;15.90;99.90
12771;DHT22;6449;47.666;9.160;2022-09-09T19:24:38;15.90;99.90
12771;DHT22;6449;47.666;9.160;2022-09-09T19:29:33;15.70;99.90
12771;DHT22;6449;47.666;9.160;2022-09-09T19:34:30;15.50;99.90
12771;DHT22;6449;47.666;9.160;2022-09-09T19:39:23;15.50;99.90
12771;DHT22;6449;47.666;9.160;2022-09-09T19:44:18;15.60;99.90
12771;DHT22;6449;47.666;9.160;2022-09-09T19:49:13;15.50;99.90
12771;DHT22;6449;47.666;9.160;2022-09-09T19:54:09;15.50;99.90
12771;DHT22;6449;47.666;9.160;2022-09-09T19:59:07;15.50;99.90
12771;DHT22;6449;47.666;9.160;2022-09-09T20:04:04;15.50;99.90
12771;DHT22;6449;47.666;9.160;2022-09-09T20:09:00;15.40;99.90
12771;DHT22;6449;47.666;9.160;2022-09-09T20:13:55;15.50;99.90
12771;DHT22;6449;47.666;9.160;2022-09-09T20:18:50;15.30;99.90
12771;DHT22;6449;47.666;9.160;2022-09-09T20:23:47;15.20;99.90
12771;DHT22;6449;47.666;9.160;2022-09-09T20:28:41;15.20;99.90
12771;DHT22;6449;47.666;9.160;2022-09-09T20:33:39;15.20;99.90
12771;DHT22;6449;47.666;9.160;2022-09-09T20:38:34;15.20;99.90
12771;DHT22;6449;47.666;9.160;2022-09-09T20:43:30;15.30;99.90
12771;DHT22;6449;47.666;9.160;2022-09-09T20:48:23;15.30;99.90
12771;DHT22;6449;47.666;9.160;2022-09-09T20:53:17;15.10;99.90
12771;DHT22;6449;47.666;9.160;2022-09-09T20:58:10;14.90;99.90
12771;DHT22;6449;47.666;9.160;2022-09-09T21:03:04;14.80;99.90
12771;DHT22;6449;47.666;9.160;2022-09-09T21:07:58;14.60;99.90
12771;DHT22;6449;47.666;9.160;2022-09-09T21:12:51;14.70;99.90
12771;DHT22;6449;47.666;9.160;2022-09-09T21:17:45;14.60;99.90
12771;DHT22;6449;47.666;9.160;2022-09-09T21:22:39;14.70;99.90
12771;DHT22;6449;47.666;9.160;2022-09-09T21:27:33;14.70;99.90
12771;DHT22;6449;47.666;9.160;2022-09-09T21:32:26;14.70;99.90
12771;DHT22;6449;47.666;9.160;2022-09-09T21:37:19;14.70;99.90
12771;DHT22;6449;47.666;9.160;2022-09-09T21:42:14;14.70;99.90
12771;DHT22;6449;47.666;9.160;2022-09-09T21:47:07;14.50;99.90
12771;DHT22;6449;47.666;9.160;2022-09-09T21:52:01;14.50;99.90
12771;DHT22;6449;47.666;9.160;2022-09-09T21:56:54;14.50;99.90
12771;DHT22;6449;47.666;9.160;2022-09-09T22:01:51;14.50;99.90
12771;DHT22;6449;47.666;9.160;2022-09-09T22:06:44;14.60;99.90
12771;DHT22;6449;47.666;9.160;2022-09-09T22:11:38;14.60;99.90
12771;DHT22;6449;47.666;9.160;2022-09-09T22:16:32;14.50;99.90
12771;DHT22;6449;47.666;9.160;2022-09-09T22:21:28;14.60;99.90
12771;DHT22;6449;47.666;9.160;2022-09-09T22:26:25;14.60;99.90
12771;DHT22;6449;47.666;9.160;2022-09-09T22:31:20;14.50;99.90
12771;DHT22;6449;47.666;9.160;2022-09-09T22:36:14;14.50;99.90
12771;DHT22;6449;47.666;9.160;2022-09-09T22:41:09;14.60;99.90
12771;DHT22;6449;47.666;9.160;2022-09-09T22:46:02;14.50;99.90
12771;DHT22;6449;47.666;9.160;2022-09-09T22:51:00;14.60;99.90
12771;DHT22;6449;47.666;9.160;2022-09-09T22:55:56;14.50;99.90
12771;DHT22;6449;47.666;9.160;2022-09-09T23:00:52;14.50;99.90
12771;DHT22;6449;47.666;9.160;2022-09-09T23:05:53;14.50;99.90
12771;DHT22;6449;47.666;9.160;2022-09-09T23:10:48;14.40;99.90
12771;DHT22;6449;47.666;9.160;2022-09-09T23:15:41;14.50;99.90
12771;DHT22;6449;47.666;9.160;2022-09-09T23:20:38;14.40;99.90
12771;DHT22;6449;47.666;9.160;2022-09-09T23:25:33;14.40;99.90
12771;DHT22;6449;47.666;9.160;2022-09-09T23:30:27;14.40;99.90
12771;DHT22;6449;47.666;9.160;2022-09-09T23:35:20;14.50;99.90
12771;DHT22;6449;47.666;9.160;2022-09-09T23:40:15;14.40;99.90
12771;DHT22;6449;47.666;9.160;2022-09-09T23:45:09;14.50;99.90
12771;DHT22;6449;47.666;9.160;2022-09-09T23:50:03;14.50;99.90
12771;DHT22;6449;47.666;9.160;2022-09-09T23:54:58;14.50;99.90
12771;DHT22;6449;47.666;9.160;2022-09-09T23:59:52;14.40;99.90
